Home > Products > Valid Products > TAF

000
FTUS44 KCRP 220500
TAFVCT
TAF
KVCT 220527Z 2206/2306 VRB03KT P6SM SCT150
     FM220900 04003KT 5SM BR FEW020
      TEMPO 2210/2213 2SM BR
     FM221500 07007KT P6SM SCT030 BKN150
     FM222100 09010G15KT P6SM SCT040
     FM230200 09008KT P6SM SCT025=



000
FTUS44 KCRP 220500
TAFLRD
TAF
KLRD 220527Z 2206/2306 11005KT P6SM -SHRA BKN050 OVC150
      TEMPO 2210/2212 SCT010 BKN025 OVC050
     FM221600 09012KT P6SM SCT035
     FM222300 09012G18KT P6SM BKN050 OVC150=



000
FTUS44 KCRP 220500
TAFALI
TAF
KALI 220527Z 2206/2306 04005KT P6SM SCT020 BKN150
      TEMPO 2210/2213 3SM BR
     FM221500 08010KT P6SM SCT030 BKN150
      TEMPO 2215/2217 BKN030
     FM222100 09012G18KT P6SM SCT040
     FM230200 09008KT P6SM SCT025=



000
FTUS44 KCRP 220500
TAFCRP
TAF
KCRP 220527Z 2206/2306 08007KT P6SM FEW020 SCT150
     FM221500 08012KT P6SM SCT030 BKN150
     FM221900 09014G20KT P6SM SCT035
     FM230300 09008KT P6SM SCT025=



000
FTUS44 KCRP 220500
TAFVCT
TAF
KVCT 220527Z 2206/2306 VRB03KT P6SM SCT150
     FM220900 04003KT 5SM BR FEW020
      TEMPO 2210/2213 2SM BR
     FM221500 07007KT P6SM SCT030 BKN150
     FM222100 09010G15KT P6SM SCT040
     FM230200 09008KT P6SM SCT025=



000
FTUS44 KCRP 220500
TAFLRD
TAF
KLRD 220527Z 2206/2306 11005KT P6SM -SHRA BKN050 OVC150
      TEMPO 2210/2212 SCT010 BKN025 OVC050
     FM221600 09012KT P6SM SCT035
     FM222300 09012G18KT P6SM BKN050 OVC150=



000
FTUS44 KCRP 220500
TAFALI
TAF
KALI 220527Z 2206/2306 04005KT P6SM SCT020 BKN150
      TEMPO 2210/2213 3SM BR
     FM221500 08010KT P6SM SCT030 BKN150
      TEMPO 2215/2217 BKN030
     FM222100 09012G18KT P6SM SCT040
     FM230200 09008KT P6SM SCT025=



000
FTUS44 KCRP 220500
TAFCRP
TAF
KCRP 220527Z 2206/2306 08007KT P6SM FEW020 SCT150
     FM221500 08012KT P6SM SCT030 BKN150
     FM221900 09014G20KT P6SM SCT035
     FM230300 09008KT P6SM SCT025=



000
FTUS44 KCRP 220000 AAA
TAFLRD
TAF AMD
KLRD 220045Z 2201/2224 11010KT P6SM VCSH SCT040 BKN050
      TEMPO 2201/2203 6SM -SHRA BR BKN040
     FM220400 12007KT P6SM FEW015 BKN050
      TEMPO 2210/2212 BKN010
     FM221600 09011KT P6SM SCT050
     FM222300 11012G18KT P6SM SCT070=



000
FTUS44 KCRP 212300
TAFVCT
TAF
KVCT 212334Z 2200/2224 07010KT P6SM SKC
     FM220800 03004KT 4SM BR FEW250
     FM221300 07010KT P6SM FEW040 FEW250=



000
FTUS44 KCRP 212300
TAFALI
TAF
KALI 212334Z 2200/2224 08010KT P6SM FEW040 SCT180
     FM220900 04005KT P6SM SCT180
      TEMPO 2211/2213 2SM BR
     FM221500 08010KT P6SM SCT035
     FM221800 09012G18KT P6SM FEW040=



000
FTUS44 KCRP 212300
TAFCRP
TAF
KCRP 212334Z 2200/2224 08011KT P6SM FEW025 SCT180 SCT250
     FM220800 05006KT P6SM FEW018 SCT180
     FM221500 08013KT P6SM SCT035 SCT180
     FM221800 09013G19KT P6SM FEW040=



000
FTUS44 KCRP 212300
TAFLRD
TAF
KLRD 212334Z 2200/2224 11010KT P6SM VCSH SCT040 BKN050
      TEMPO 2200/2201 5SM -SHRA BR BKN040
     FM220400 12007KT P6SM FEW015 BKN050
      TEMPO 2210/2212 BKN010
     FM221600 09011KT P6SM SCT050
     FM222300 11012G18KT P6SM SCT070=



000
FTUS44 KCRP 212000 AAA
TAFLRD
TAF AMD
KLRD 212024Z 2120/2218 08010KT P6SM VCSH SCT040 BKN050
      TEMPO 2120/2124 5SM -SHRA BR BKN035
     FM220400 10007KT P6SM FEW015 BKN050
      TEMPO 2210/2212 BKN010
     FM221600 09011KT P6SM BKN050=



000
FTUS44 KCRP 211700
TAFLRD
TAF
KLRD 211725Z 2118/2218 10011KT P6SM SCT040 BKN060
     FM220400 10007KT P6SM FEW015 BKN050
      TEMPO 2210/2212 BKN010
     FM221600 09011KT P6SM BKN050=



000
FTUS44 KCRP 211700
TAFCRP
TAF
KCRP 211725Z 2118/2218 06014KT P6SM SCT030 SCT250
     FM220100 09007KT P6SM FEW018 SCT250
     FM220800 05006KT P6SM FEW018 SCT250
     FM221500 08013KT P6SM SCT250=



000
FTUS44 KCRP 211700
TAFALI
TAF
KALI 211725Z 2118/2218 08014KT P6SM SCT040 SCT100
     FM220100 07007KT P6SM SCT250
     FM220900 04005KT P6SM SCT250
      TEMPO 2212/2213 2SM BR
     FM221500 08010KT P6SM SCT040=



000
FTUS44 KCRP 211700
TAFVCT
TAF
KVCT 211725Z 2118/2218 07010KT P6SM FEW050 SCT250
     FM220800 03004KT 4SM BR SKC
     FM221400 07010KT P6SM FEW040=



000
FTUS44 KCRP 211500 AAB
TAFLRD
TAF AMD
KLRD 211503Z 2115/2212 10011KT P6SM BKN070
     FM220400 10007KT P6SM FEW015 BKN050=



000
FTUS44 KCRP 211200 AAA
TAFLRD
TAF AMD
KLRD 211257Z 2113/2212 06005KT 6SM BR BKN013
      TEMPO 2113/2115 SCT013 BKN070
     FM211500 10011KT P6SM SCT035 BKN150
     FM220400 10007KT P6SM FEW015 BKN050=



000
FTUS44 KCRP 211200 AAA
TAFALI
TAF AMD
KALI 211255Z 2113/2212 05008KT 6SM BR SCT020 BKN070
      TEMPO 2113/2114 2SM BR BKN015
     FM211400 06008KT P6SM SCT025 SCT050
     FM211900 09013KT P6SM SCT040 SCT150
     FM220100 07007KT P6SM SCT250=



000
FTUS44 KCRP 211100
TAFCRP
TAF
KCRP 211133Z 2112/2212 05010KT P6SM SCT025 SCT150
     FM211700 08014KT P6SM FEW035 SCT150
     FM220100 09007KT P6SM FEW018 SCT250=



000
FTUS44 KCRP 211100
TAFVCT
TAF
KVCT 211133Z 2112/2212 02004KT 4SM BR SKC
     FM211400 07010KT P6SM FEW040 SCT250
     FM220800 03004KT 4SM BR SKC=



000
FTUS44 KCRP 211100
TAFALI
TAF
KALI 211133Z 2112/2212 05008KT 6SM BR SCT020
      TEMPO 2112/2114 BKN015
     FM211400 06008KT P6SM SCT025 SCT050
     FM211900 09013KT P6SM SCT040 SCT150
     FM220100 07007KT P6SM SCT250=



000
FTUS44 KCRP 211100
TAFLRD
TAF
KLRD 211133Z 2112/2212 06005KT 6SM BR BKN011
      TEMPO 2113/2115 BKN009
     FM211500 10011KT P6SM SCT035 BKN150
     FM220400 10007KT P6SM FEW015 BKN050=



000
FTUS44 KCRP 211100
TAFLRD
TAF
KLRD 211133Z 2112/2212 06005KT 6SM BR BKN011
      TEMPO 2113/2115 BKN009
     FM211500 10011KT P6SM SCT035 BKN150
     FM220400 10007KT P6SM FEW015 BKN050=



000
FTUS44 KCRP 211100
TAFALI
TAF
KALI 211133Z 2112/2212 05008KT 6SM BR SCT020
      TEMPO 2112/2114 BKN015
     FM211400 06008KT P6SM SCT025 SCT050
     FM211900 09013KT P6SM SCT040 SCT150
     FM220100 07007KT P6SM SCT250=



000
FTUS44 KCRP 211100
TAFVCT
TAF
KVCT 211133Z 2112/2212 02004KT 4SM BR SKC
     FM211400 07010KT P6SM FEW040 SCT250
     FM220800 03004KT 4SM BR SKC=



000
FTUS44 KCRP 211100
TAFCRP
TAF
KCRP 211133Z 2112/2212 05010KT P6SM SCT025 SCT150
     FM211700 08014KT P6SM FEW035 SCT150
     FM220100 09007KT P6SM FEW018 SCT250=



000
FTUS44 KCRP 210900 AAB
TAFVCT
TAF AMD
KVCT 210923Z 2109/2206 04004KT 4SM BR SKC
      TEMPO 2109/2113 2SM BR
     FM211400 07010KT P6SM FEW040 SCT250=



000
FTUS44 KCRP 210900 AAA
TAFALI
TAF AMD
KALI 210904Z 2109/2206 03004KT 6SM BR FEW001 FEW015
      TEMPO 2111/2114 2SM BR FEW001
     FM211400 06008KT P6SM SCT025 SCT050
     FM211900 09013KT P6SM SCT040 SCT150=



000
FTUS44 KCRP 210700 AAA
TAFVCT
TAF AMD
KVCT 210703Z 2107/2206 04004KT 4SM BR SCT200
     FM211400 07010KT P6SM FEW040 SCT250=



000
FTUS44 KCRP 210500
TAFVCT
TAF
KVCT 210533Z 2106/2206 06004KT 6SM BR SCT200
      TEMPO 2109/2113 4SM BR
     FM211400 07010KT P6SM FEW040 SCT250=



000
FTUS44 KCRP 210500
TAFCRP
TAF
KCRP 210533Z 2106/2206 07006KT P6SM FEW018
      TEMPO 2111/2114 6SM BR MIFG FEW001
     FM211400 07012KT P6SM SCT025 SCT150
     FM211800 08014KT P6SM SCT035 SCT150
     FM220100 09007KT P6SM FEW018=



000
FTUS44 KCRP 210500
TAFALI
TAF
KALI 210533Z 2106/2206 04004KT 4SM BR FEW200
     FM210800 03004KT 2SM BR FEW001 FEW015
      TEMPO 2110/2114 1/2SM FG BKN001
     FM211400 06008KT P6SM SCT025 SCT050
     FM211900 09013KT P6SM SCT040 SCT150=



000
FTUS44 KCRP 210500
TAFLRD
TAF
KLRD 210533Z 2106/2206 06005KT P6SM SCT040 BKN100
     FM211000 05005KT 6SM BR BKN012
      TEMPO 2111/2115 5SM BR BKN009
     FM211500 09011KT P6SM SCT025
     FM211700 10010KT P6SM SCT050 BKN100=



000
FTUS44 KCRP 202300
TAFVCT
TAF
KVCT 202329Z 2100/2124 08008KT P6SM SCT040 BKN060
     FM210800 03005KT 4SM BR FEW025 SCT250
     FM211500 07010KT P6SM FEW040 BKN250
     FM212000 09012G18KT P6SM FEW250=



000
FTUS44 KCRP 202300
TAFCRP
TAF
KCRP 202329Z 2100/2124 08009KT P6SM SCT035 BKN100
      TEMPO 2100/2102 -SHRA SCT030
     FM210300 07006KT P6SM FEW020 BKN100
     FM211100 04008KT P6SM VCSH SCT025 BKN035
     FM211900 08012G18KT P6SM SCT025=



000
FTUS44 KCRP 202300
TAFALI
TAF
KALI 202329Z 2100/2124 09014KT P6SM BKN100
      TEMPO 2100/2102 -SHRA SCT030
     FM210200 VRB03KT P6SM SCT025 SCT200
      TEMPO 2109/2113 4SM BR BKN019
     FM211400 06008KT P6SM SCT025 BKN035
     FM211900 09012G18KT P6SM SCT025=



000
FTUS44 KCRP 202300
TAFLRD
TAF
KLRD 202329Z 2100/2124 06010KT P6SM SCT040 BKN100
      TEMPO 2100/2102 -SHRA SCT040
     FM210800 05005KT 6SM BR SCT015
      TEMPO 2112/2115 6SM BR BKN015
     FM211500 09011KT P6SM SCT025 BKN040=



000
FTUS44 KCRP 201900 AAA
TAFCRP
TAF AMD
KCRP 201916Z 2019/2118 09011KT P6SM VCTS BKN025CB BKN130
      TEMPO 2019/2022 VRB15G25KT 3SM TSRA BR BKN016CB OVC130
     FM202200 08009KT P6SM VCSH SCT035 BKN100
      TEMPO 2022/2024 5SM SHRA BR BKN028
     FM210300 05006KT P6SM FEW020 BKN100=



000
FTUS44 KCRP 201700
TAFVCT
TAF
KVCT 201736Z 2018/2118 05010KT P6SM SCT025 BKN060
     FM202100 08008KT P6SM SCT040 BKN060
     FM210800 03005KT 4SM BR FEW025 SCT250
     FM211500 07010KT P6SM FEW040 BKN250=



000
FTUS44 KCRP 201700
TAFALI
TAF
KALI 201736Z 2018/2118 09011KT P6SM VCSH SCT035 BKN050
      TEMPO 2018/2021 3SM SHRA BR BKN015 OVC030
     FM202100 10010KT P6SM VCTS SCT030CB BKN100
      TEMPO 2021/2024 3SM TSRA BR BKN030CB
     FM210100 VRB03KT P6SM SCT025 BKN200
      TEMPO 2109/2113 4SM BR BKN019
     FM211400 06008KT P6SM SCT025 BKN035=



000
FTUS44 KCRP 201700
TAFCRP
TAF
KCRP 201736Z 2018/2118 09011KT P6SM VCTS BKN025CB BKN130
      TEMPO 2018/2022 3SM TSRA BR BKN016CB OVC130
     FM202200 08009KT P6SM VCSH SCT035 BKN100
      TEMPO 2022/2024 5SM SHRA BR BKN028
     FM210300 05006KT P6SM FEW020 BKN100=



000
FTUS44 KCRP 201700
TAFLRD
TAF
KLRD 201736Z 2018/2118 09010KT P6SM VCSH SCT040 BKN100
      TEMPO 2019/2023 5SM SHRA BR BKN030
     FM210800 05005KT 6SM BR BKN015
     FM211400 09010KT P6SM SCT025 BKN040=



000
FTUS44 KCRP 201100
TAFLRD
TAF
KLRD 201127Z 2012/2112 05008KT P6SM FEW012
      TEMPO 2012/2015 BKN020
     FM201500 09010KT P6SM SCT025 BKN150
     FM201700 10012KT P6SM SCT035 BKN150 PROB30 2022/2102 SHRA
      BKN035
     FM210800 05005KT P6SM BKN015=



000
FTUS44 KCRP 201100
TAFCRP
TAF
KCRP 201127Z 2012/2112 03009KT P6SM FEW025 BKN060
     FM201500 06012KT P6SM VCSH SCT030 BKN120
      TEMPO 2015/2019 4SM SHRA BR BKN025
     FM201900 09011KT P6SM VCSH SCT030 BKN120
      TEMPO 2019/2022 5SM SHRA BR BKN030
     FM202200 08009KT P6SM SCT035 BKN100
     FM210300 05006KT P6SM FEW020 BKN100=



000
FTUS44 KCRP 201100
TAFVCT
TAF
KVCT 201127Z 2012/2112 02004KT 3SM BR SCT070
      TEMPO 2012/2013 2SM BR
     FM201400 05007KT P6SM SCT025 SCT150
     FM201700 08008KT P6SM SCT040 SCT150
     FM210800 03005KT 4SM BR FEW025 SCT250=



000
FTUS44 KCRP 201100
TAFALI
TAF
KALI 201127Z 2012/2112 04004KT 4SM BR FEW022 BKN050
      TEMPO 2013/2014 5SM BR SCT020
     FM201400 04007KT P6SM SCT025 BKN050
     FM201700 09012KT P6SM VCSH SCT035 BKN050
      TEMPO 2018/2022 4SM SHRA BR BKN030
     FM202200 10010KT P6SM VCSH SCT030 BKN100
      TEMPO 2022/2024 4SM SHRA BR BKN030
     FM210000 04003KT P6SM SCT025
     FM210800 VRB03KT 4SM BR SCT015=



000
FTUS44 KCRP 201000 AAA
TAFALI
TAF AMD
KALI 201001Z 2010/2106 05004KT P6SM FEW025 SCT060
      TEMPO 2010/2014 5SM BR SCT015
     FM201600 09012KT P6SM VCSH SCT035 BKN050
     FM202200 10008KT P6SM SCT025 BKN100=



000
FTUS44 KCRP 201000 AAA
TAFALI
TAF AMD
KALI 201001Z 2010/2106 05004KT P6SM FEW025 SCT060
      TEMPO 2010/2014 5SM BR SCT015
     FM201600 09012KT P6SM VCSH SCT035 BKN050
     FM202200 10008KT P6SM SCT025 BKN100=



000
FTUS44 KCRP 200600 AAA
TAFVCT
TAF AMD
KVCT 200607Z 2006/2106 05004KT 4SM BR FEW020 SCT060
      TEMPO 2006/2010 2SM BR
     FM201000 04003KT 2SM BR SCT020
      TEMPO 2012/2013 4SM BR
     FM201400 05007KT P6SM SCT025 SCT150
     FM201700 09008KT P6SM SCT040 SCT150=



000
FTUS44 KCRP 200500
TAFCRP
TAF
KCRP 200536Z 2006/2106 09006KT P6SM SCT025 BKN060
     FM201500 08013KT P6SM VCSH SCT030 PROB30 2015/2021 5SM SHRA
      BKN030
     FM202200 09011KT P6SM SCT035 BKN100=



000
FTUS44 KCRP 200500
TAFLRD
TAF
KLRD 200536Z 2006/2106 VRB04KT P6SM SCT050 BKN250
      TEMPO 2011/2014 BKN020
     FM201500 09010KT P6SM SCT025 BKN150
     FM201700 10012KT P6SM SCT035 BKN150 PROB30 2020/2101 SHRA
      SCT030=



000
FTUS44 KCRP 200500
TAFVCT
TAF
KVCT 200536Z 2006/2106 05004KT 4SM BR FEW020 SCT060
      TEMPO 2007/2010 2SM BR
     FM201000 04003KT 2SM BR SCT020
      TEMPO 2012/2013 4SM BR
     FM201400 05007KT P6SM SCT025 SCT150
     FM201700 09008KT P6SM SCT040 SCT150=



000
FTUS44 KCRP 200500
TAFALI
TAF
KALI 200536Z 2006/2106 05004KT P6SM FEW025 SCT060
      TEMPO 2011/2014 5SM BR SCT015
     FM201600 09012KT P6SM VCSH SCT035 BKN050 PROB30 2016/2022 5SM
      SHRA BKN030
     FM202200 10008KT P6SM SCT025 BKN100=



000
FTUS44 KCRP 192300 CCA
TAFCRP
TAF COR
KCRP 192343Z 2000/2024 09012G18KT P6SM SCT030 BKN150
     FM200400 09009KT P6SM SCT025 BKN250
     FM200800 07005KT P6SM BKN025 OVC200
     FM201200 08005KT P6SM VCSH BKN025
     FM201800 09014G18KT P6SM VCTS SCT030CB PROB30 2018/2020 5SM
      TSRA BKN025CB
     FM202200 09015G20KT P6SM SCT035=



000
FTUS44 KCRP 192300 CCA
TAFCRP
TAF COR
KCRP 192343Z 2000/2024 09012G18KT P6SM SCT030 BKN150
     FM200400 09009KT P6SM SCT025 BKN250
     FM200800 07005KT P6SM BKN025 OVC200
     FM201200 08005KT P6SM VCSH BKN025
     FM201800 09014G18KT P6SM VCTS SCT030CB PROB30 2018/2020 5SM
      TSRA BKN025CB
     FM202200 09015G20KT P6SM SCT035=



000
FTUS44 KCRP 192300 CCA
TAFALI
TAF COR
KALI 192342Z 2000/2024 09010G18KT P6SM VCSH SCT040 BKN150
     FM200200 09008KT P6SM SCT025 BKN250
     FM200800 07004KT 5SM BR BKN025 OVC200
     FM201400 08009KT P6SM VCSH BKN025
     FM201900 09012G18KT P6SM VCTS BKN035CB PROB30 2019/2021 5SM
      TSRA OVC030CB=



000
FTUS44 KCRP 192300 CCA
TAFALI
TAF COR
KALI 192342Z 2000/2024 09010G18KT P6SM VCSH SCT040 BKN150
     FM200200 09008KT P6SM SCT025 BKN250
     FM200800 07004KT 5SM BR BKN025 OVC200
     FM201400 08009KT P6SM VCSH BKN025
     FM201900 09012G18KT P6SM VCTS BKN035CB PROB30 2019/2021 5SM
      TSRA OVC030CB=



000
FTUS44 KCRP 192300
TAFCRP
TAF
KCRP 192329Z 2000/2024 09012G18KT P6SM SCT030 BKN150
     FM200400 09009KT P6SM SCT025 BKN250
     FM200800 07005KT P6SM BKN025 OVC200
     FM201200 08005KT P6SM VCSH BKN025
     FM201800 09014G18KT P6SM VCTS SCT030CB PROB30 2018/2020 5SM
      TSRA BKN025CB
     FM202000 09015G20KT P6SM SCT035=



000
FTUS44 KCRP 192300
TAFVCT
TAF
KVCT 192329Z 2000/2024 14012KT P6SM SCT040
     FM200200 09008KT P6SM SCT025 BKN250
     FM200800 04004KT 5SM BR SCT020 BKN200
     FM201400 08009KT P6SM SCT025
     FM202000 12012KT P6SM SCT035=



000
FTUS44 KCRP 192300
TAFALI
TAF
KALI 192329Z 2000/2024 09010G18KT P6SM VCSH SCT040 BKN150
     FM200200 09008KT P6SM SCT025 BKN250
     FM200800 07004KT 5SM BR BKN025 OVC200
     FM201400 08009KT P6SM VCSH BKN025
     FM202000 09012G18KT P6SM VCTS BKN035CB=



000
FTUS44 KCRP 192300
TAFLRD
TAF
KLRD 192329Z 2000/2024 10009KT P6SM VCSH SCT040
     FM200300 09012KT P6SM SCT050 BKN250
     FM200800 09006KT P6SM SCT020 BKN100
      TEMPO 2010/2013 BKN020
     FM201500 09010KT P6SM SCT030 BKN150
     FM201800 09012KT P6SM VCTS SCT040CB BKN150 PROB30 2022/2024
      TSRA OVC035CB=



000
FTUS44 KCRP 192300
TAFVCT
TAF
KVCT 192329Z 2000/2024 14012KT P6SM SCT040
     FM200200 09008KT P6SM SCT025 BKN250
     FM200800 04004KT 5SM BR SCT020 BKN200
     FM201400 08009KT P6SM SCT025
     FM202000 12012KT P6SM SCT035=



000
FTUS44 KCRP 192300
TAFCRP
TAF
KCRP 192329Z 2000/2024 09012G18KT P6SM SCT030 BKN150
     FM200400 09009KT P6SM SCT025 BKN250
     FM200800 07005KT P6SM BKN025 OVC200
     FM201200 08005KT P6SM VCSH BKN025
     FM201800 09014G18KT P6SM VCTS SCT030CB PROB30 2018/2020 5SM
      TSRA BKN025CB
     FM202000 09015G20KT P6SM SCT035=



000
FTUS44 KCRP 192300
TAFALI
TAF
KALI 192329Z 2000/2024 09010G18KT P6SM VCSH SCT040 BKN150
     FM200200 09008KT P6SM SCT025 BKN250
     FM200800 07004KT 5SM BR BKN025 OVC200
     FM201400 08009KT P6SM VCSH BKN025
     FM202000 09012G18KT P6SM VCTS BKN035CB=



000
FTUS44 KCRP 192300
TAFLRD
TAF
KLRD 192329Z 2000/2024 10009KT P6SM VCSH SCT040
     FM200300 09012KT P6SM SCT050 BKN250
     FM200800 09006KT P6SM SCT020 BKN100
      TEMPO 2010/2013 BKN020
     FM201500 09010KT P6SM SCT030 BKN150
     FM201800 09012KT P6SM VCTS SCT040CB BKN150 PROB30 2022/2024
      TSRA OVC035CB=



000
FTUS44 KCRP 191700
TAFLRD
TAF
KLRD 191720Z 1918/2018 10013KT P6SM VCTS SCT050CB BKN080
      TEMPO 1919/1923 3SM TSRA OVC035CB
     FM200000 11008KT P6SM VCSH SCT040 BKN120
     FM200800 09006KT P6SM BKN025 OVC200
     FM201700 11011KT P6SM VCSH SCT025 BKN150=



000
FTUS44 KCRP 191700
TAFVCT
TAF
KVCT 191720Z 1918/2018 08011KT P6SM SCT060
     FM192000 11011KT P6SM BKN035
     FM200100 08005KT P6SM FEW015 SCT070
     FM200800 04003KT 4SM BR SCT015 BKN050
     FM201400 07009KT P6SM FEW025 BKN035=



000
FTUS44 KCRP 191700
TAFALI
TAF
KALI 191720Z 1918/2018 09014KT P6SM VCSH FEW025 BKN035
      TEMPO 1921/1924 5SM -TSRA OVC030CB
     FM200100 11007KT P6SM SCT028 BKN250
     FM200800 06004KT 5SM BR BKN025 OVC200
     FM201400 07009KT P6SM VCSH BKN028=



000
FTUS44 KCRP 191700
TAFCRP
TAF
KCRP 191720Z 1918/2018 09014KT P6SM FEW030 BKN040
     FM200200 10008KT P6SM SCT025 BKN150
     FM200800 09008KT P6SM VCSH BKN025 OVC200 PROB30 2015/2018 4SM
      TSRA BR OVC020CB=



000
FTUS44 KCRP 191400 AAA
TAFLRD
TAF AMD
KLRD 191405Z 1914/2012 10008KT P6SM VCSH SCT030 BKN040
      TEMPO 1914/1918 5SM -SHRA BR OVC025
     FM191800 12012KT P6SM VCTS BKN040CB BKN150
      TEMPO 1918/1922 3SM TSRA OVC035CB
     FM200000 11008KT P6SM SCT030 BKN100
     FM200800 09006KT P6SM BKN018 OVC100=



000
FTUS44 KCRP 191400 AAA
TAFCRP
TAF AMD
KCRP 191403Z 1914/2012 06008KT P6SM SCT028 BKN050
      TEMPO 1914/1917 BKN028
     FM191900 09010KT P6SM SCT040 BKN200
     FM200200 10008KT P6SM SCT015 BKN150
     FM200800 09008KT P6SM VCSH BKN015 OVC100=



000
FTUS44 KCRP 191400 AAA
TAFALI
TAF AMD
KALI 191402Z 1914/2012 06006KT P6SM SCT025 BKN050
      TEMPO 1914/1917 BKN025
     FM191900 09009KT P6SM VCTS BKN035CB BKN150
      TEMPO 1921/1924 4SM TSRA OVC028CB
     FM200100 11007KT P6SM SCT018 BKN150
     FM200800 06004KT 5SM BR BKN015 BKN100=



000
FTUS44 KCRP 191100
TAFVCT
TAF
KVCT 191135Z 1912/2012 03004KT 6SM BR SKC
      TEMPO 1912/1914 3SM BR SCT001
     FM191400 06006KT P6SM SCT030 SCT200
     FM192100 11010KT P6SM BKN040
     FM200100 10005KT P6SM FEW015 SCT150
     FM200800 05003KT 4SM BR SCT015 BKN050=



000
FTUS44 KCRP 191100
TAFLRD
TAF
KLRD 191135Z 1912/2012 10008KT P6SM VCSH SCT015 OVC040
      TEMPO 1912/1915 5SM -SHRA BR OVC015
     FM191500 11011KT P6SM VCSH SCT035 BKN120
     FM191800 12012KT P6SM VCTS BKN040CB BKN150
      TEMPO 1918/1922 3SM TSRA OVC035CB
     FM200000 11008KT P6SM SCT030 BKN100
     FM200800 09006KT P6SM BKN018 OVC100=



000
FTUS44 KCRP 191100
TAFALI
TAF
KALI 191135Z 1912/2012 04005KT P6SM SCT022 BKN070
      TEMPO 1912/1914 5SM BR BKN022
     FM191400 08007KT P6SM BKN028 BKN200
     FM191800 09009KT P6SM VCTS BKN035CB BKN150 PROB30 1921/1924 4SM
      TSRA OVC028CB
     FM200100 11007KT P6SM SCT018 BKN150
     FM200800 06004KT 5SM BR BKN015 BKN100=



000
FTUS44 KCRP 191100
TAFCRP
TAF
KCRP 191135Z 1912/2012 07005KT P6SM SCT022 BKN070
      TEMPO 1912/1914 BKN022
     FM191400 09006KT P6SM BKN024 BKN200
     FM191700 09010KT P6SM BKN028 BKN200
     FM192100 10012KT P6SM SCT035 BKN150
     FM200200 10008KT P6SM SCT015 BKN150
     FM200800 09008KT P6SM VCSH BKN015 OVC100=



000
FTUS44 KCRP 191100 AAB
TAFVCT
TAF AMD
KVCT 191105Z 1911/2006 04004KT 5SM BR FEW001 SCT100
      TEMPO 1911/1913 1SM BR SCT001
     FM191400 07006KT P6SM SCT030 SCT200
     FM192100 11010KT P6SM BKN040
     FM200100 10005KT P6SM SCT150=



000
FTUS44 KCRP 190900 AAA
TAFVCT
TAF AMD
KVCT 190902Z 1909/2006 04004KT 4SM BR FEW001 SCT100
      TEMPO 1909/1913 1/2SM FG SCT001
     FM191400 07006KT P6SM SCT030 SCT200
     FM192100 11010KT P6SM BKN040
     FM200100 10005KT P6SM SCT150=



000
FTUS44 KCRP 190700 AAB
TAFALI
TAF AMD
KALI 190745Z 1908/2006 08006KT P6SM VCSH SCT022 BKN080
      TEMPO 1908/1912 3SM SHRA BR BKN022
     FM191400 08007KT P6SM VCSH BKN028 BKN080
     FM191800 09009KT P6SM VCTS BKN035CB BKN150 PROB30 1918/1922 4SM
      TSRA OVC028CB
     FM200100 11007KT P6SM SCT018 BKN150=



000
FTUS44 KCRP 190700 AAA
TAFLRD
TAF AMD
KLRD 190734Z 1908/2006 10008KT P6SM VCSH BKN015 OVC050
      TEMPO 1908/1912 5SM -SHRA BR OVC012
     FM191500 11011KT P6SM SCT035 BKN120
     FM191800 12012KT P6SM VCTS BKN040CB BKN150 PROB30 1918/1922 3SM
      TSRA OVC035CB
     FM200000 11008KT P6SM SCT030 BKN100=



000
FTUS44 KCRP 190700 AAA
TAFALI
TAF AMD
KALI 190733Z 1908/2006 08006KT P6SM VCSH SCT022 BKN080
      TEMPO 1908/1912 5SM -SHRA BR BKN022
     FM191400 08007KT P6SM VCSH BKN028 BKN080
     FM191800 09009KT P6SM VCTS BKN035CB BKN150 PROB30 1918/1922 4SM
      TSRA OVC028CB
     FM200100 11007KT P6SM SCT018 BKN150=



    US Dept of Commerce
    National Oceanic and Atmospheric Administration
    National Weather Service
    1325 East West Highway
    Silver Spring, MD 20910
    Page Author: NWS Internet Services Team
Disclaimer
Information Quality
Credits
Glossary
Privacy Policy
Freedom of Information Act (FOIA)
About Us
Career Opportunities